Terminal Aerodrome Forecast
Issued by NWS Charleston, WV

Home | Current Version | Previous Version | Text Only | Print | Product List | Glossary On
Versions: 1 2 3 4 5 6 7 8 9 10 11 12 13 14 15 16 17 18 19 20 21 22 23
000
FTUS41 KRLX 010529
TAFBKW
TAF
KBKW 010529Z 0106/0206 25004KT 3SM BR SCT006 BKN015
     FM011500 27008KT P6SM BKN015
     FM011700 28008KT P6SM VCTS BKN025CB
     FM011900 28008KT P6SM VCTS BKN035CB
     FM020500 25004KT P6SM VCTS BKN035CB=

USA.gov is the U.S. government's official web portal to all federal, state and local government web resources and services.